sensor_id;sensor_type;location;lat;lon;timestamp;P1;durP1;ratioP1;P2;durP2;ratioP2
21519;SDS011;10921;53.614;9.882;2023-01-05T00:00:53;36.55;;;21.45;;
21519;SDS011;10921;53.614;9.882;2023-01-05T00:03:21;40.72;;;20.35;;
21519;SDS011;10921;53.614;9.882;2023-01-05T00:05:48;27.27;;;18.05;;
21519;SDS011;10921;53.614;9.882;2023-01-05T00:08:14;26.20;;;15.98;;
21519;SDS011;10921;53.614;9.882;2023-01-05T00:10:41;24.27;;;15.30;;
21519;SDS011;10921;53.614;9.882;2023-01-05T00:13:25;22.95;;;14.73;;
21519;SDS011;10921;53.614;9.882;2023-01-05T00:16:11;27.40;;;14.13;;
21519;SDS011;10921;53.614;9.882;2023-01-05T00:18:57;28.25;;;14.90;;
21519;SDS011;10921;53.614;9.882;2023-01-05T00:21:43;24.70;;;14.25;;
21519;SDS011;10921;53.614;9.882;2023-01-05T00:24:28;26.90;;;14.75;;
21519;SDS011;10921;53.614;9.882;2023-01-05T00:26:55;36.92;;;14.85;;
21519;SDS011;10921;53.614;9.882;2023-01-05T00:29:22;31.80;;;13.93;;
21519;SDS011;10921;53.614;9.882;2023-01-05T00:31:49;22.67;;;13.35;;
21519;SDS011;10921;53.614;9.882;2023-01-05T00:34:15;26.65;;;11.95;;
21519;SDS011;10921;53.614;9.882;2023-01-05T00:36:42;28.13;;;12.80;;
21519;SDS011;10921;53.614;9.882;2023-01-05T00:39:08;28.25;;;11.75;;
21519;SDS011;10921;53.614;9.882;2023-01-05T00:41:35;29.65;;;13.02;;
21519;SDS011;10921;53.614;9.882;2023-01-05T00:44:01;23.95;;;12.10;;
21519;SDS011;10921;53.614;9.882;2023-01-05T00:46:28;24.63;;;11.82;;
21519;SDS011;10921;53.614;9.882;2023-01-05T00:48:54;27.08;;;12.13;;
21519;SDS011;10921;53.614;9.882;2023-01-05T00:51:20;23.98;;;11.48;;
21519;SDS011;10921;53.614;9.882;2023-01-05T00:53:47;27.88;;;11.23;;
21519;SDS011;10921;53.614;9.882;2023-01-05T00:56:14;25.23;;;10.93;;
21519;SDS011;10921;53.614;9.882;2023-01-05T00:58:40;22.17;;;10.93;;
21519;SDS011;10921;53.614;9.882;2023-01-05T01:01:08;29.95;;;11.10;;
21519;SDS011;10921;53.614;9.882;2023-01-05T01:03:38;27.52;;;11.00;;
21519;SDS011;10921;53.614;9.882;2023-01-05T01:06:05;28.50;;;10.63;;
21519;SDS011;10921;53.614;9.882;2023-01-05T01:08:31;24.70;;;10.77;;
21519;SDS011;10921;53.614;9.882;2023-01-05T01:11:02;21.33;;;9.95;;
21519;SDS011;10921;53.614;9.882;2023-01-05T01:13:29;14.90;;;10.52;;
21519;SDS011;10921;53.614;9.882;2023-01-05T01:15:56;17.95;;;9.85;;
21519;SDS011;10921;53.614;9.882;2023-01-05T01:18:22;18.73;;;9.38;;
21519;SDS011;10921;53.614;9.882;2023-01-05T01:20:49;19.88;;;9.85;;
21519;SDS011;10921;53.614;9.882;2023-01-05T01:23:15;18.88;;;9.80;;
21519;SDS011;10921;53.614;9.882;2023-01-05T01:25:42;21.98;;;11.23;;
21519;SDS011;10921;53.614;9.882;2023-01-05T01:28:08;20.13;;;10.43;;
21519;SDS011;10921;53.614;9.882;2023-01-05T01:30:36;21.17;;;9.45;;
21519;SDS011;10921;53.614;9.882;2023-01-05T01:33:03;18.00;;;10.43;;
21519;SDS011;10921;53.614;9.882;2023-01-05T01:35:30;18.15;;;9.75;;
21519;SDS011;10921;53.614;9.882;2023-01-05T01:37:56;19.45;;;10.40;;
21519;SDS011;10921;53.614;9.882;2023-01-05T01:40:23;22.08;;;10.40;;
21519;SDS011;10921;53.614;9.882;2023-01-05T01:42:49;21.77;;;10.32;;
21519;SDS011;10921;53.614;9.882;2023-01-05T01:45:17;16.52;;;10.45;;
21519;SDS011;10921;53.614;9.882;2023-01-05T01:47:48;21.45;;;10.45;;
21519;SDS011;10921;53.614;9.882;2023-01-05T01:50:22;21.17;;;10.18;;
21519;SDS011;10921;53.614;9.882;2023-01-05T01:52:55;20.58;;;10.13;;
21519;SDS011;10921;53.614;9.882;2023-01-05T01:55:56;23.52;;;9.93;;
21519;SDS011;10921;53.614;9.882;2023-01-05T01:58:27;25.13;;;9.60;;
21519;SDS011;10921;53.614;9.882;2023-01-05T02:00:56;21.23;;;10.60;;
21519;SDS011;10921;53.614;9.882;2023-01-05T02:05:53;15.98;;;9.82;;
21519;SDS011;10921;53.614;9.882;2023-01-05T02:08:20;17.38;;;10.18;;
21519;SDS011;10921;53.614;9.882;2023-01-05T02:38:59;16.88;;;10.65;;
21519;SDS011;10921;53.614;9.882;2023-01-05T02:41:36;16.52;;;10.25;;
21519;SDS011;10921;53.614;9.882;2023-01-05T02:44:07;17.33;;;10.45;;
21519;SDS011;10921;53.614;9.882;2023-01-05T02:46:34;13.88;;;10.10;;
21519;SDS011;10921;53.614;9.882;2023-01-05T02:49:00;16.50;;;10.80;;
21519;SDS011;10921;53.614;9.882;2023-01-05T02:51:35;16.00;;;11.00;;
21519;SDS011;10921;53.614;9.882;2023-01-05T02:54:05;13.45;;;10.18;;
21519;SDS011;10921;53.614;9.882;2023-01-05T02:57:00;19.23;;;10.93;;
21519;SDS011;10921;53.614;9.882;2023-01-05T02:59:33;17.15;;;10.73;;
21519;SDS011;10921;53.614;9.882;2023-01-05T03:02:06;21.70;;;10.35;;
21519;SDS011;10921;53.614;9.882;2023-01-05T03:04:37;14.38;;;10.23;;
21519;SDS011;10921;53.614;9.882;2023-01-05T03:07:13;14.23;;;10.43;;
21519;SDS011;10921;53.614;9.882;2023-01-05T03:09:43;12.73;;;9.98;;
21519;SDS011;10921;53.614;9.882;2023-01-05T03:15:26;17.85;;;9.70;;
21519;SDS011;10921;53.614;9.882;2023-01-05T03:17:59;13.48;;;10.45;;
21519;SDS011;10921;53.614;9.882;2023-01-05T03:20:32;19.10;;;10.30;;
21519;SDS011;10921;53.614;9.882;2023-01-05T03:23:00;17.27;;;10.20;;
21519;SDS011;10921;53.614;9.882;2023-01-05T03:25:48;15.73;;;10.60;;
21519;SDS011;10921;53.614;9.882;2023-01-05T03:28:38;14.43;;;10.18;;
21519;SDS011;10921;53.614;9.882;2023-01-05T03:34:26;16.17;;;10.00;;
21519;SDS011;10921;53.614;9.882;2023-01-05T03:37:23;20.27;;;10.38;;
21519;SDS011;10921;53.614;9.882;2023-01-05T03:39:54;13.05;;;9.77;;
21519;SDS011;10921;53.614;9.882;2023-01-05T03:42:20;20.60;;;10.48;;
21519;SDS011;10921;53.614;9.882;2023-01-05T03:44:48;18.17;;;10.20;;
21519;SDS011;10921;53.614;9.882;2023-01-05T03:47:15;18.60;;;10.15;;
21519;SDS011;10921;53.614;9.882;2023-01-05T03:49:41;17.13;;;10.55;;
21519;SDS011;10921;53.614;9.882;2023-01-05T03:52:08;20.05;;;10.50;;
21519;SDS011;10921;53.614;9.882;2023-01-05T03:54:34;19.58;;;10.80;;
21519;SDS011;10921;53.614;9.882;2023-01-05T03:57:01;12.35;;;10.07;;
21519;SDS011;10921;53.614;9.882;2023-01-05T03:59:27;18.77;;;10.70;;
21519;SDS011;10921;53.614;9.882;2023-01-05T04:01:54;18.45;;;10.43;;
21519;SDS011;10921;53.614;9.882;2023-01-05T04:04:20;19.20;;;10.25;;
21519;SDS011;10921;53.614;9.882;2023-01-05T04:06:47;16.27;;;10.85;;
21519;SDS011;10921;53.614;9.882;2023-01-05T04:09:13;28.38;;;10.70;;
21519;SDS011;10921;53.614;9.882;2023-01-05T04:11:42;17.75;;;10.80;;
21519;SDS011;10921;53.614;9.882;2023-01-05T04:14:08;13.95;;;10.20;;
21519;SDS011;10921;53.614;9.882;2023-01-05T04:16:35;21.90;;;10.60;;
21519;SDS011;10921;53.614;9.882;2023-01-05T04:19:01;21.50;;;10.93;;
21519;SDS011;10921;53.614;9.882;2023-01-05T04:21:28;20.30;;;10.77;;
21519;SDS011;10921;53.614;9.882;2023-01-05T04:23:55;19.92;;;10.00;;
21519;SDS011;10921;53.614;9.882;2023-01-05T04:26:21;18.95;;;10.18;;
21519;SDS011;10921;53.614;9.882;2023-01-05T04:28:48;21.58;;;11.07;;
21519;SDS011;10921;53.614;9.882;2023-01-05T04:31:15;23.75;;;10.93;;
21519;SDS011;10921;53.614;9.882;2023-01-05T04:33:41;18.65;;;10.57;;
21519;SDS011;10921;53.614;9.882;2023-01-05T04:36:10;17.50;;;10.27;;
21519;SDS011;10921;53.614;9.882;2023-01-05T04:38:37;24.48;;;11.82;;
21519;SDS011;10921;53.614;9.882;2023-01-05T04:41:03;19.20;;;11.50;;
21519;SDS011;10921;53.614;9.882;2023-01-05T04:43:30;17.85;;;10.90;;
21519;SDS011;10921;53.614;9.882;2023-01-05T04:45:56;26.08;;;11.27;;
21519;SDS011;10921;53.614;9.882;2023-01-05T04:48:22;19.60;;;10.57;;
21519;SDS011;10921;53.614;9.882;2023-01-05T04:50:52;17.58;;;10.68;;
21519;SDS011;10921;53.614;9.882;2023-01-05T04:53:19;16.92;;;10.10;;
21519;SDS011;10921;53.614;9.882;2023-01-05T04:55:47;24.02;;;11.43;;
21519;SDS011;10921;53.614;9.882;2023-01-05T04:58:15;21.88;;;10.35;;
21519;SDS011;10921;53.614;9.882;2023-01-05T05:00:41;17.27;;;10.07;;
21519;SDS011;10921;53.614;9.882;2023-01-05T05:03:08;17.48;;;10.30;;
21519;SDS011;10921;53.614;9.882;2023-01-05T05:05:34;20.60;;;11.00;;
21519;SDS011;10921;53.614;9.882;2023-01-05T05:08:01;19.33;;;9.95;;
21519;SDS011;10921;53.614;9.882;2023-01-05T05:10:27;15.18;;;9.95;;
21519;SDS011;10921;53.614;9.882;2023-01-05T05:12:54;17.00;;;9.98;;
21519;SDS011;10921;53.614;9.882;2023-01-05T05:15:20;16.20;;;10.27;;
21519;SDS011;10921;53.614;9.882;2023-01-05T05:17:47;22.25;;;10.18;;
21519;SDS011;10921;53.614;9.882;2023-01-05T05:20:13;18.33;;;10.27;;
21519;SDS011;10921;53.614;9.882;2023-01-05T05:22:40;30.35;;;10.27;;
21519;SDS011;10921;53.614;9.882;2023-01-05T05:25:07;25.23;;;10.57;;
21519;SDS011;10921;53.614;9.882;2023-01-05T05:27:33;14.45;;;9.90;;
21519;SDS011;10921;53.614;9.882;2023-01-05T05:30:00;22.85;;;10.75;;
21519;SDS011;10921;53.614;9.882;2023-01-05T05:32:27;16.60;;;10.18;;
21519;SDS011;10921;53.614;9.882;2023-01-05T05:34:53;24.42;;;10.13;;
21519;SDS011;10921;53.614;9.882;2023-01-05T05:37:20;19.65;;;9.95;;
21519;SDS011;10921;53.614;9.882;2023-01-05T05:39:46;19.75;;;9.80;;
21519;SDS011;10921;53.614;9.882;2023-01-05T05:42:13;25.58;;;10.32;;
21519;SDS011;10921;53.614;9.882;2023-01-05T05:44:39;24.58;;;10.80;;
21519;SDS011;10921;53.614;9.882;2023-01-05T05:47:05;19.33;;;10.68;;
21519;SDS011;10921;53.614;9.882;2023-01-05T05:49:32;23.60;;;10.80;;
21519;SDS011;10921;53.614;9.882;2023-01-05T05:51:59;27.05;;;11.05;;
21519;SDS011;10921;53.614;9.882;2023-01-05T05:54:25;22.67;;;10.35;;
21519;SDS011;10921;53.614;9.882;2023-01-05T05:56:52;22.95;;;10.40;;
21519;SDS011;10921;53.614;9.882;2023-01-05T05:59:18;21.63;;;10.50;;
21519;SDS011;10921;53.614;9.882;2023-01-05T06:01:44;19.25;;;9.98;;
21519;SDS011;10921;53.614;9.882;2023-01-05T06:04:11;25.13;;;10.23;;
21519;SDS011;10921;53.614;9.882;2023-01-05T06:06:38;23.42;;;10.20;;
21519;SDS011;10921;53.614;9.882;2023-01-05T06:09:05;19.42;;;9.95;;
21519;SDS011;10921;53.614;9.882;2023-01-05T06:11:31;19.90;;;10.73;;
21519;SDS011;10921;53.614;9.882;2023-01-05T06:13:58;23.83;;;10.02;;
21519;SDS011;10921;53.614;9.882;2023-01-05T06:16:24;24.92;;;11.02;;
21519;SDS011;10921;53.614;9.882;2023-01-05T06:18:51;24.35;;;10.68;;
21519;SDS011;10921;53.614;9.882;2023-01-05T06:21:17;23.70;;;11.90;;
21519;SDS011;10921;53.614;9.882;2023-01-05T06:23:46;19.35;;;10.77;;
21519;SDS011;10921;53.614;9.882;2023-01-05T06:26:13;25.88;;;11.10;;
21519;SDS011;10921;53.614;9.882;2023-01-05T06:28:39;19.58;;;11.07;;
21519;SDS011;10921;53.614;9.882;2023-01-05T06:31:06;26.33;;;10.40;;
21519;SDS011;10921;53.614;9.882;2023-01-05T06:33:33;29.42;;;11.40;;
21519;SDS011;10921;53.614;9.882;2023-01-05T06:35:59;17.98;;;11.32;;
21519;SDS011;10921;53.614;9.882;2023-01-05T06:38:26;25.48;;;11.13;;
21519;SDS011;10921;53.614;9.882;2023-01-05T06:40:52;16.83;;;10.02;;
21519;SDS011;10921;53.614;9.882;2023-01-05T06:43:19;29.77;;;11.25;;
21519;SDS011;10921;53.614;9.882;2023-01-05T06:45:46;22.38;;;9.98;;
21519;SDS011;10921;53.614;9.882;2023-01-05T06:48:12;24.80;;;10.50;;
21519;SDS011;10921;53.614;9.882;2023-01-05T06:50:39;23.13;;;11.30;;
21519;SDS011;10921;53.614;9.882;2023-01-05T06:53:05;26.02;;;10.98;;
21519;SDS011;10921;53.614;9.882;2023-01-05T06:55:32;18.85;;;10.63;;
21519;SDS011;10921;53.614;9.882;2023-01-05T06:57:58;22.17;;;10.57;;
21519;SDS011;10921;53.614;9.882;2023-01-05T07:00:26;23.65;;;11.93;;
21519;SDS011;10921;53.614;9.882;2023-01-05T07:02:53;22.40;;;10.60;;
21519;SDS011;10921;53.614;9.882;2023-01-05T07:05:19;24.58;;;10.85;;
21519;SDS011;10921;53.614;9.882;2023-01-05T07:07:48;20.08;;;10.60;;
21519;SDS011;10921;53.614;9.882;2023-01-05T07:10:15;24.60;;;10.98;;
21519;SDS011;10921;53.614;9.882;2023-01-05T07:12:41;22.20;;;11.20;;
21519;SDS011;10921;53.614;9.882;2023-01-05T07:15:08;19.00;;;10.05;;
21519;SDS011;10921;53.614;9.882;2023-01-05T07:17:35;22.13;;;10.52;;
21519;SDS011;10921;53.614;9.882;2023-01-05T07:20:02;26.45;;;11.35;;
21519;SDS011;10921;53.614;9.882;2023-01-05T07:22:30;27.25;;;11.15;;
21519;SDS011;10921;53.614;9.882;2023-01-05T07:24:57;23.27;;;10.52;;
21519;SDS011;10921;53.614;9.882;2023-01-05T07:27:24;25.65;;;11.20;;
21519;SDS011;10921;53.614;9.882;2023-01-05T07:29:51;32.42;;;11.10;;
21519;SDS011;10921;53.614;9.882;2023-01-05T07:32:17;27.20;;;11.90;;
21519;SDS011;10921;53.614;9.882;2023-01-05T07:34:44;24.73;;;11.25;;
21519;SDS011;10921;53.614;9.882;2023-01-05T07:37:21;23.60;;;11.18;;
21519;SDS011;10921;53.614;9.882;2023-01-05T07:39:49;23.88;;;11.02;;
21519;SDS011;10921;53.614;9.882;2023-01-05T07:42:16;27.98;;;11.60;;
21519;SDS011;10921;53.614;9.882;2023-01-05T07:44:42;30.98;;;11.45;;
21519;SDS011;10921;53.614;9.882;2023-01-05T07:47:08;24.52;;;12.25;;
21519;SDS011;10921;53.614;9.882;2023-01-05T07:49:35;29.45;;;12.05;;
21519;SDS011;10921;53.614;9.882;2023-01-05T07:52:01;30.02;;;11.68;;
21519;SDS011;10921;53.614;9.882;2023-01-05T07:54:28;33.78;;;12.20;;
21519;SDS011;10921;53.614;9.882;2023-01-05T07:56:55;32.88;;;12.57;;
21519;SDS011;10921;53.614;9.882;2023-01-05T07:59:21;28.88;;;11.75;;
21519;SDS011;10921;53.614;9.882;2023-01-05T08:01:48;30.23;;;11.85;;
21519;SDS011;10921;53.614;9.882;2023-01-05T08:04:14;27.73;;;12.00;;
21519;SDS011;10921;53.614;9.882;2023-01-05T08:06:41;25.83;;;11.70;;
21519;SDS011;10921;53.614;9.882;2023-01-05T08:09:07;30.23;;;12.20;;
21519;SDS011;10921;53.614;9.882;2023-01-05T08:11:52;25.15;;;11.75;;
21519;SDS011;10921;53.614;9.882;2023-01-05T08:14:18;30.17;;;11.60;;
21519;SDS011;10921;53.614;9.882;2023-01-05T08:16:45;30.50;;;11.90;;
21519;SDS011;10921;53.614;9.882;2023-01-05T08:19:11;20.60;;;11.88;;
21519;SDS011;10921;53.614;9.882;2023-01-05T08:21:38;31.92;;;12.65;;
21519;SDS011;10921;53.614;9.882;2023-01-05T08:24:05;34.33;;;15.05;;
21519;SDS011;10921;53.614;9.882;2023-01-05T08:26:32;33.85;;;17.13;;
21519;SDS011;10921;53.614;9.882;2023-01-05T08:28:59;41.75;;;19.25;;
21519;SDS011;10921;53.614;9.882;2023-01-05T08:31:26;35.55;;;19.17;;
21519;SDS011;10921;53.614;9.882;2023-01-05T08:33:55;30.83;;;19.17;;
21519;SDS011;10921;53.614;9.882;2023-01-05T08:36:25;35.30;;;20.77;;
21519;SDS011;10921;53.614;9.882;2023-01-05T08:38:52;45.00;;;24.20;;
21519;SDS011;10921;53.614;9.882;2023-01-05T08:41:20;48.72;;;27.48;;
21519;SDS011;10921;53.614;9.882;2023-01-05T08:43:52;47.55;;;27.85;;
21519;SDS011;10921;53.614;9.882;2023-01-05T08:46:28;31.33;;;26.30;;
21519;SDS011;10921;53.614;9.882;2023-01-05T08:51:25;37.63;;;26.60;;
21519;SDS011;10921;53.614;9.882;2023-01-05T08:53:52;38.53;;;26.70;;
21519;SDS011;10921;53.614;9.882;2023-01-05T08:56:19;36.90;;;27.02;;
21519;SDS011;10921;53.614;9.882;2023-01-05T08:58:46;51.00;;;28.20;;
21519;SDS011;10921;53.614;9.882;2023-01-05T09:01:14;40.97;;;26.88;;
21519;SDS011;10921;53.614;9.882;2023-01-05T09:06:10;43.33;;;29.23;;
21519;SDS011;10921;53.614;9.882;2023-01-05T09:08:38;43.63;;;27.67;;
21519;SDS011;10921;53.614;9.882;2023-01-05T09:13:38;42.47;;;28.75;;
21519;SDS011;10921;53.614;9.882;2023-01-05T09:16:10;38.20;;;29.55;;
21519;SDS011;10921;53.614;9.882;2023-01-05T09:18:39;37.78;;;29.20;;
21519;SDS011;10921;53.614;9.882;2023-01-05T09:21:06;33.72;;;29.45;;
21519;SDS011;10921;53.614;9.882;2023-01-05T09:23:33;32.50;;;28.90;;
21519;SDS011;10921;53.614;9.882;2023-01-05T09:26:04;35.20;;;29.48;;
21519;SDS011;10921;53.614;9.882;2023-01-05T09:28:33;38.92;;;29.17;;
21519;SDS011;10921;53.614;9.882;2023-01-05T09:31:11;35.88;;;29.08;;
21519;SDS011;10921;53.614;9.882;2023-01-05T09:33:42;41.30;;;29.45;;
21519;SDS011;10921;53.614;9.882;2023-01-05T09:36:10;35.42;;;28.15;;
21519;SDS011;10921;53.614;9.882;2023-01-05T09:38:38;37.63;;;28.20;;
21519;SDS011;10921;53.614;9.882;2023-01-05T09:41:14;38.50;;;28.33;;
21519;SDS011;10921;53.614;9.882;2023-01-05T09:43:48;35.83;;;27.88;;
21519;SDS011;10921;53.614;9.882;2023-01-05T09:46:19;43.70;;;28.08;;
21519;SDS011;10921;53.614;9.882;2023-01-05T09:48:51;45.00;;;27.95;;
21519;SDS011;10921;53.614;9.882;2023-01-05T09:51:21;39.63;;;27.48;;
21519;SDS011;10921;53.614;9.882;2023-01-05T09:53:48;42.88;;;26.60;;
21519;SDS011;10921;53.614;9.882;2023-01-05T09:56:27;39.28;;;26.90;;
21519;SDS011;10921;53.614;9.882;2023-01-05T09:59:20;36.88;;;26.80;;
21519;SDS011;10921;53.614;9.882;2023-01-05T10:01:51;37.08;;;26.05;;
21519;SDS011;10921;53.614;9.882;2023-01-05T10:04:21;41.88;;;26.15;;
21519;SDS011;10921;53.614;9.882;2023-01-05T10:07:00;47.03;;;25.83;;
21519;SDS011;10921;53.614;9.882;2023-01-05T10:09:30;41.10;;;24.00;;
21519;SDS011;10921;53.614;9.882;2023-01-05T10:12:01;36.15;;;23.50;;
21519;SDS011;10921;53.614;9.882;2023-01-05T10:14:50;37.33;;;24.20;;
21519;SDS011;10921;53.614;9.882;2023-01-05T10:17:23;34.58;;;22.63;;
21519;SDS011;10921;53.614;9.882;2023-01-05T10:20:26;31.30;;;20.27;;
21519;SDS011;10921;53.614;9.882;2023-01-05T10:29:18;30.60;;;17.20;;
21519;SDS011;10921;53.614;9.882;2023-01-05T10:32:05;34.33;;;15.77;;
21519;SDS011;10921;53.614;9.882;2023-01-05T10:37:54;31.52;;;14.43;;
21519;SDS011;10921;53.614;9.882;2023-01-05T10:46:09;26.13;;;11.63;;
21519;SDS011;10921;53.614;9.882;2023-01-05T10:48:58;33.30;;;11.93;;
21519;SDS011;10921;53.614;9.882;2023-01-05T10:51:25;28.45;;;11.48;;
21519;SDS011;10921;53.614;9.882;2023-01-05T10:53:58;32.13;;;11.82;;
21519;SDS011;10921;53.614;9.882;2023-01-05T10:56:27;25.63;;;10.45;;
21519;SDS011;10921;53.614;9.882;2023-01-05T10:59:28;28.45;;;10.73;;
21519;SDS011;10921;53.614;9.882;2023-01-05T11:01:47;26.17;;;11.00;;
21519;SDS011;10921;53.614;9.882;2023-01-05T11:04:16;33.00;;;10.77;;
21519;SDS011;10921;53.614;9.882;2023-01-05T11:07:01;23.73;;;12.38;;
21519;SDS011;10921;53.614;9.882;2023-01-05T11:09:32;22.05;;;11.60;;
21519;SDS011;10921;53.614;9.882;2023-01-05T11:12:04;29.05;;;12.30;;
21519;SDS011;10921;53.614;9.882;2023-01-05T11:14:35;36.33;;;12.95;;
21519;SDS011;10921;53.614;9.882;2023-01-05T11:17:10;22.38;;;11.30;;
21519;SDS011;10921;53.614;9.882;2023-01-05T11:19:43;36.30;;;12.20;;
21519;SDS011;10921;53.614;9.882;2023-01-05T11:28:15;22.73;;;12.18;;
21519;SDS011;10921;53.614;9.882;2023-01-05T11:31:02;23.73;;;11.93;;
21519;SDS011;10921;53.614;9.882;2023-01-05T11:33:31;35.78;;;12.23;;
21519;SDS011;10921;53.614;9.882;2023-01-05T11:36:01;34.38;;;12.88;;
21519;SDS011;10921;53.614;9.882;2023-01-05T11:38:29;23.65;;;10.20;;
21519;SDS011;10921;53.614;9.882;2023-01-05T11:40:57;26.02;;;11.73;;
21519;SDS011;10921;53.614;9.882;2023-01-05T11:43:27;27.05;;;11.00;;
21519;SDS011;10921;53.614;9.882;2023-01-05T11:45:58;36.10;;;11.65;;
21519;SDS011;10921;53.614;9.882;2023-01-05T11:48:28;32.15;;;13.50;;
21519;SDS011;10921;53.614;9.882;2023-01-05T11:50:57;27.25;;;10.85;;
21519;SDS011;10921;53.614;9.882;2023-01-05T11:58:46;32.97;;;12.43;;
21519;SDS011;10921;53.614;9.882;2023-01-05T12:04:08;27.05;;;11.43;;
21519;SDS011;10921;53.614;9.882;2023-01-05T12:20:53;20.65;;;11.35;;
21519;SDS011;10921;53.614;9.882;2023-01-05T12:32:05;24.33;;;11.00;;
21519;SDS011;10921;53.614;9.882;2023-01-05T12:38:10;28.92;;;12.68;;
21519;SDS011;10921;53.614;9.882;2023-01-05T12:49:04;17.85;;;12.00;;
21519;SDS011;10921;53.614;9.882;2023-01-05T12:51:41;27.45;;;12.20;;
21519;SDS011;10921;53.614;9.882;2023-01-05T12:56:54;28.92;;;11.65;;
21519;SDS011;10921;53.614;9.882;2023-01-05T12:59:37;21.08;;;10.80;;
21519;SDS011;10921;53.614;9.882;2023-01-05T13:07:31;18.58;;;10.30;;
21519;SDS011;10921;53.614;9.882;2023-01-05T13:10:05;14.45;;;9.63;;
21519;SDS011;10921;53.614;9.882;2023-01-05T13:12:37;12.63;;;9.95;;
21519;SDS011;10921;53.614;9.882;2023-01-05T13:15:08;16.73;;;10.23;;
21519;SDS011;10921;53.614;9.882;2023-01-05T13:18:23;13.30;;;10.05;;
21519;SDS011;10921;53.614;9.882;2023-01-05T13:20:44;14.35;;;10.23;;
21519;SDS011;10921;53.614;9.882;2023-01-05T13:23:24;14.30;;;10.27;;
21519;SDS011;10921;53.614;9.882;2023-01-05T13:26:04;20.40;;;10.20;;
21519;SDS011;10921;53.614;9.882;2023-01-05T13:28:32;19.80;;;10.98;;
21519;SDS011;10921;53.614;9.882;2023-01-05T13:42:28;13.13;;;10.00;;
21519;SDS011;10921;53.614;9.882;2023-01-05T13:47:51;19.97;;;10.60;;
21519;SDS011;10921;53.614;9.882;2023-01-05T13:51:16;15.35;;;10.48;;
21519;SDS011;10921;53.614;9.882;2023-01-05T13:53:53;18.80;;;10.90;;
21519;SDS011;10921;53.614;9.882;2023-01-05T13:56:24;23.02;;;10.68;;
21519;SDS011;10921;53.614;9.882;2023-01-05T13:59:00;17.20;;;11.15;;
21519;SDS011;10921;53.614;9.882;2023-01-05T14:01:39;23.27;;;11.20;;
21519;SDS011;10921;53.614;9.882;2023-01-05T14:06:49;20.42;;;12.23;;
21519;SDS011;10921;53.614;9.882;2023-01-05T14:09:38;20.25;;;12.10;;
21519;SDS011;10921;53.614;9.882;2023-01-05T14:26:04;21.98;;;11.88;;
21519;SDS011;10921;53.614;9.882;2023-01-05T14:34:11;21.05;;;11.68;;
21519;SDS011;10921;53.614;9.882;2023-01-05T14:41:59;16.17;;;10.63;;
21519;SDS011;10921;53.614;9.882;2023-01-05T14:44:50;27.02;;;11.45;;
21519;SDS011;10921;53.614;9.882;2023-01-05T14:47:41;22.40;;;11.10;;
21519;SDS011;10921;53.614;9.882;2023-01-05T14:53:03;18.17;;;11.18;;
21519;SDS011;10921;53.614;9.882;2023-01-05T14:55:34;18.38;;;11.75;;
21519;SDS011;10921;53.614;9.882;2023-01-05T14:58:14;18.15;;;11.52;;
21519;SDS011;10921;53.614;9.882;2023-01-05T15:01:15;14.05;;;10.80;;
21519;SDS011;10921;53.614;9.882;2023-01-05T15:03:57;15.73;;;11.23;;
21519;SDS011;10921;53.614;9.882;2023-01-05T15:12:33;21.80;;;12.10;;
21519;SDS011;10921;53.614;9.882;2023-01-05T15:17:58;21.67;;;11.88;;
21519;SDS011;10921;53.614;9.882;2023-01-05T15:28:58;16.25;;;10.48;;
21519;SDS011;10921;53.614;9.882;2023-01-05T15:39:43;22.50;;;10.50;;
21519;SDS011;10921;53.614;9.882;2023-01-05T15:42:25;23.30;;;10.95;;
21519;SDS011;10921;53.614;9.882;2023-01-05T15:44:59;25.00;;;11.02;;
21519;SDS011;10921;53.614;9.882;2023-01-05T15:47:27;16.10;;;10.40;;
21519;SDS011;10921;53.614;9.882;2023-01-05T15:49:55;17.30;;;10.65;;
21519;SDS011;10921;53.614;9.882;2023-01-05T15:52:33;14.70;;;10.65;;
21519;SDS011;10921;53.614;9.882;2023-01-05T15:57:42;53.13;;;21.65;;
21519;SDS011;10921;53.614;9.882;2023-01-05T16:02:49;28.65;;;13.57;;
21519;SDS011;10921;53.614;9.882;2023-01-05T16:05:20;33.55;;;15.93;;
21519;SDS011;10921;53.614;9.882;2023-01-05T16:07:56;26.65;;;13.40;;
21519;SDS011;10921;53.614;9.882;2023-01-05T16:13:10;24.92;;;14.93;;
21519;SDS011;10921;53.614;9.882;2023-01-05T16:15:42;17.30;;;13.02;;
21519;SDS011;10921;53.614;9.882;2023-01-05T16:18:20;15.63;;;12.05;;
21519;SDS011;10921;53.614;9.882;2023-01-05T16:20:50;17.15;;;11.93;;
21519;SDS011;10921;53.614;9.882;2023-01-05T16:23:31;27.23;;;11.77;;
21519;SDS011;10921;53.614;9.882;2023-01-05T16:26:05;23.85;;;11.85;;
21519;SDS011;10921;53.614;9.882;2023-01-05T16:28:40;34.35;;;17.73;;
21519;SDS011;10921;53.614;9.882;2023-01-05T16:31:40;25.30;;;16.52;;
21519;SDS011;10921;53.614;9.882;2023-01-05T16:34:15;25.05;;;14.90;;
21519;SDS011;10921;53.614;9.882;2023-01-05T16:36:59;21.95;;;13.25;;
21519;SDS011;10921;53.614;9.882;2023-01-05T16:39:33;20.67;;;13.38;;
21519;SDS011;10921;53.614;9.882;2023-01-05T16:42:10;39.88;;;23.63;;
21519;SDS011;10921;53.614;9.882;2023-01-05T16:45:16;57.10;;;29.52;;
21519;SDS011;10921;53.614;9.882;2023-01-05T16:47:45;40.22;;;21.13;;
21519;SDS011;10921;53.614;9.882;2023-01-05T16:55:39;29.77;;;17.52;;
21519;SDS011;10921;53.614;9.882;2023-01-05T17:01:13;34.33;;;22.23;;
21519;SDS011;10921;53.614;9.882;2023-01-05T17:03:47;30.10;;;18.63;;
21519;SDS011;10921;53.614;9.882;2023-01-05T17:08:48;29.33;;;17.55;;
21519;SDS011;10921;53.614;9.882;2023-01-05T17:11:16;28.27;;;15.68;;
21519;SDS011;10921;53.614;9.882;2023-01-05T17:13:52;24.45;;;15.60;;
21519;SDS011;10921;53.614;9.882;2023-01-05T17:16:20;24.25;;;16.33;;
21519;SDS011;10921;53.614;9.882;2023-01-05T17:18:48;30.15;;;17.48;;
21519;SDS011;10921;53.614;9.882;2023-01-05T17:21:19;30.15;;;15.68;;
21519;SDS011;10921;53.614;9.882;2023-01-05T17:23:49;26.02;;;14.98;;
21519;SDS011;10921;53.614;9.882;2023-01-05T17:26:19;25.40;;;14.03;;
21519;SDS011;10921;53.614;9.882;2023-01-05T17:28:56;27.38;;;14.05;;
21519;SDS011;10921;53.614;9.882;2023-01-05T17:31:24;18.98;;;13.25;;
21519;SDS011;10921;53.614;9.882;2023-01-05T17:33:51;26.25;;;14.30;;
21519;SDS011;10921;53.614;9.882;2023-01-05T17:36:25;27.67;;;12.73;;
21519;SDS011;10921;53.614;9.882;2023-01-05T17:38:53;22.77;;;12.15;;
21519;SDS011;10921;53.614;9.882;2023-01-05T17:41:20;28.05;;;12.02;;
21519;SDS011;10921;53.614;9.882;2023-01-05T17:43:47;27.73;;;12.27;;
21519;SDS011;10921;53.614;9.882;2023-01-05T17:46:18;19.90;;;12.82;;
21519;SDS011;10921;53.614;9.882;2023-01-05T17:48:46;28.20;;;12.52;;
21519;SDS011;10921;53.614;9.882;2023-01-05T17:51:13;32.83;;;14.55;;
21519;SDS011;10921;53.614;9.882;2023-01-05T17:53:40;26.38;;;12.88;;
21519;SDS011;10921;53.614;9.882;2023-01-05T17:56:06;29.23;;;14.30;;
21519;SDS011;10921;53.614;9.882;2023-01-05T17:58:33;26.45;;;13.05;;
21519;SDS011;10921;53.614;9.882;2023-01-05T18:00:59;26.00;;;12.65;;
21519;SDS011;10921;53.614;9.882;2023-01-05T18:03:26;24.88;;;13.10;;
21519;SDS011;10921;53.614;9.882;2023-01-05T18:05:52;22.77;;;13.18;;
21519;SDS011;10921;53.614;9.882;2023-01-05T18:08:19;14.25;;;11.43;;
21519;SDS011;10921;53.614;9.882;2023-01-05T18:10:46;23.67;;;12.50;;